sensor_id;sensor_type;location;lat;lon;timestamp;P1;durP1;ratioP1;P2;durP2;ratioP2
40453;SDS011;26160;51.858;4.398;2023-09-12T00:00:01;40.53;;;29.88;;
40453;SDS011;26160;51.858;4.398;2023-09-12T00:02:30;38.33;;;27.88;;
40453;SDS011;26160;51.858;4.398;2023-09-12T00:04:56;40.17;;;29.83;;
40453;SDS011;26160;51.858;4.398;2023-09-12T00:07:23;40.55;;;29.05;;
40453;SDS011;26160;51.858;4.398;2023-09-12T00:09:49;39.70;;;29.65;;
40453;SDS011;26160;51.858;4.398;2023-09-12T00:12:15;44.85;;;31.17;;
40453;SDS011;26160;51.858;4.398;2023-09-12T00:14:42;44.97;;;30.55;;
40453;SDS011;26160;51.858;4.398;2023-09-12T00:17:09;42.13;;;29.92;;
40453;SDS011;26160;51.858;4.398;2023-09-12T00:19:35;46.35;;;30.58;;
40453;SDS011;26160;51.858;4.398;2023-09-12T00:22:01;42.03;;;30.55;;
40453;SDS011;26160;51.858;4.398;2023-09-12T00:24:29;41.13;;;30.58;;
40453;SDS011;26160;51.858;4.398;2023-09-12T00:26:55;46.25;;;31.23;;
40453;SDS011;26160;51.858;4.398;2023-09-12T00:29:21;38.38;;;29.58;;
40453;SDS011;26160;51.858;4.398;2023-09-12T00:31:47;42.33;;;30.08;;
40453;SDS011;26160;51.858;4.398;2023-09-12T00:34:17;47.72;;;31.85;;
40453;SDS011;26160;51.858;4.398;2023-09-12T00:36:43;39.58;;;27.88;;
40453;SDS011;26160;51.858;4.398;2023-09-12T00:39:09;37.83;;;27.58;;
40453;SDS011;26160;51.858;4.398;2023-09-12T00:41:35;55.05;;;31.33;;
40453;SDS011;26160;51.858;4.398;2023-09-12T00:44:02;35.15;;;28.02;;
40453;SDS011;26160;51.858;4.398;2023-09-12T00:46:28;52.53;;;32.60;;
40453;SDS011;26160;51.858;4.398;2023-09-12T00:48:55;39.45;;;27.33;;
40453;SDS011;26160;51.858;4.398;2023-09-12T00:51:23;38.55;;;26.65;;
40453;SDS011;26160;51.858;4.398;2023-09-12T00:53:50;42.80;;;28.05;;
40453;SDS011;26160;51.858;4.398;2023-09-12T00:56:17;39.35;;;26.58;;
40453;SDS011;26160;51.858;4.398;2023-09-12T00:58:43;36.80;;;25.92;;
40453;SDS011;26160;51.858;4.398;2023-09-12T01:03:47;38.47;;;26.23;;
40453;SDS011;26160;51.858;4.398;2023-09-12T01:06:14;37.80;;;24.73;;
40453;SDS011;26160;51.858;4.398;2023-09-12T01:08:45;35.85;;;24.98;;
40453;SDS011;26160;51.858;4.398;2023-09-12T01:11:12;34.20;;;24.38;;
40453;SDS011;26160;51.858;4.398;2023-09-12T01:13:40;34.40;;;24.45;;
40453;SDS011;26160;51.858;4.398;2023-09-12T01:16:06;31.98;;;24.27;;
40453;SDS011;26160;51.858;4.398;2023-09-12T01:18:32;36.47;;;24.40;;
40453;SDS011;26160;51.858;4.398;2023-09-12T01:23:35;48.13;;;28.40;;
40453;SDS011;26160;51.858;4.398;2023-09-12T01:26:41;38.30;;;24.23;;
40453;SDS011;26160;51.858;4.398;2023-09-12T01:29:09;38.30;;;24.88;;
40453;SDS011;26160;51.858;4.398;2023-09-12T01:31:38;31.42;;;22.60;;
40453;SDS011;26160;51.858;4.398;2023-09-12T01:34:08;34.42;;;24.17;;
40453;SDS011;26160;51.858;4.398;2023-09-12T01:36:38;34.90;;;23.90;;
40453;SDS011;26160;51.858;4.398;2023-09-12T01:39:04;36.88;;;23.42;;
40453;SDS011;26160;51.858;4.398;2023-09-12T01:41:31;27.70;;;21.05;;
40453;SDS011;26160;51.858;4.398;2023-09-12T01:44:00;29.92;;;21.98;;
40453;SDS011;26160;51.858;4.398;2023-09-12T01:46:28;26.33;;;21.27;;
40453;SDS011;26160;51.858;4.398;2023-09-12T01:48:56;27.27;;;20.73;;
40453;SDS011;26160;51.858;4.398;2023-09-12T01:51:24;30.55;;;22.08;;
40453;SDS011;26160;51.858;4.398;2023-09-12T01:53:52;33.38;;;22.13;;
40453;SDS011;26160;51.858;4.398;2023-09-12T01:56:20;33.33;;;22.70;;
40453;SDS011;26160;51.858;4.398;2023-09-12T01:58:47;31.20;;;22.33;;
40453;SDS011;26160;51.858;4.398;2023-09-12T02:01:13;33.45;;;23.63;;
40453;SDS011;26160;51.858;4.398;2023-09-12T02:03:40;30.63;;;21.88;;
40453;SDS011;26160;51.858;4.398;2023-09-12T02:06:06;31.27;;;21.23;;
40453;SDS011;26160;51.858;4.398;2023-09-12T02:08:32;28.63;;;20.52;;
40453;SDS011;26160;51.858;4.398;2023-09-12T02:10:58;30.30;;;20.73;;
40453;SDS011;26160;51.858;4.398;2023-09-12T02:13:24;35.92;;;23.65;;
40453;SDS011;26160;51.858;4.398;2023-09-12T02:15:58;33.13;;;22.00;;
40453;SDS011;26160;51.858;4.398;2023-09-12T02:18:24;27.35;;;20.20;;
40453;SDS011;26160;51.858;4.398;2023-09-12T02:20:50;32.60;;;20.83;;
40453;SDS011;26160;51.858;4.398;2023-09-12T02:23:17;49.65;;;26.80;;
40453;SDS011;26160;51.858;4.398;2023-09-12T02:25:43;32.88;;;22.33;;
40453;SDS011;26160;51.858;4.398;2023-09-12T02:28:09;36.33;;;21.35;;
40453;SDS011;26160;51.858;4.398;2023-09-12T02:30:37;32.15;;;23.15;;
40453;SDS011;26160;51.858;4.398;2023-09-12T02:33:05;38.28;;;23.38;;
40453;SDS011;26160;51.858;4.398;2023-09-12T02:35:32;40.55;;;24.55;;
40453;SDS011;26160;51.858;4.398;2023-09-12T02:37:58;36.58;;;23.48;;
40453;SDS011;26160;51.858;4.398;2023-09-12T02:40:24;35.50;;;22.60;;
40453;SDS011;26160;51.858;4.398;2023-09-12T02:42:50;36.67;;;23.35;;
40453;SDS011;26160;51.858;4.398;2023-09-12T02:45:17;36.15;;;23.45;;
40453;SDS011;26160;51.858;4.398;2023-09-12T02:47:43;40.63;;;23.50;;
40453;SDS011;26160;51.858;4.398;2023-09-12T02:50:10;33.97;;;21.33;;
40453;SDS011;26160;51.858;4.398;2023-09-12T02:52:36;36.75;;;23.05;;
40453;SDS011;26160;51.858;4.398;2023-09-12T02:55:02;32.88;;;20.42;;
40453;SDS011;26160;51.858;4.398;2023-09-12T02:57:29;34.83;;;21.38;;
40453;SDS011;26160;51.858;4.398;2023-09-12T02:59:55;44.47;;;26.35;;
40453;SDS011;26160;51.858;4.398;2023-09-12T03:02:21;35.58;;;22.27;;
40453;SDS011;26160;51.858;4.398;2023-09-12T03:04:47;36.20;;;23.60;;
40453;SDS011;26160;51.858;4.398;2023-09-12T03:07:13;39.05;;;24.70;;
40453;SDS011;26160;51.858;4.398;2023-09-12T03:09:40;46.85;;;25.38;;
40453;SDS011;26160;51.858;4.398;2023-09-12T03:12:06;37.60;;;24.02;;
40453;SDS011;26160;51.858;4.398;2023-09-12T03:14:32;47.60;;;26.73;;
40453;SDS011;26160;51.858;4.398;2023-09-12T03:16:58;40.95;;;24.58;;
40453;SDS011;26160;51.858;4.398;2023-09-12T03:19:24;43.00;;;27.15;;
40453;SDS011;26160;51.858;4.398;2023-09-12T03:21:51;42.45;;;26.85;;
40453;SDS011;26160;51.858;4.398;2023-09-12T03:24:17;44.92;;;27.40;;
40453;SDS011;26160;51.858;4.398;2023-09-12T03:26:44;43.25;;;24.73;;
40453;SDS011;26160;51.858;4.398;2023-09-12T03:29:10;48.25;;;28.10;;
40453;SDS011;26160;51.858;4.398;2023-09-12T03:31:36;48.40;;;28.42;;
40453;SDS011;26160;51.858;4.398;2023-09-12T03:34:02;43.75;;;27.90;;
40453;SDS011;26160;51.858;4.398;2023-09-12T03:36:28;64.20;;;32.80;;
40453;SDS011;26160;51.858;4.398;2023-09-12T03:38:54;52.70;;;28.25;;
40453;SDS011;26160;51.858;4.398;2023-09-12T03:41:21;56.35;;;30.92;;
40453;SDS011;26160;51.858;4.398;2023-09-12T03:43:54;57.22;;;30.77;;
40453;SDS011;26160;51.858;4.398;2023-09-12T03:46:21;45.38;;;27.02;;
40453;SDS011;26160;51.858;4.398;2023-09-12T03:48:47;51.22;;;28.42;;
40453;SDS011;26160;51.858;4.398;2023-09-12T03:51:14;49.92;;;27.55;;
40453;SDS011;26160;51.858;4.398;2023-09-12T03:53:40;76.38;;;35.80;;
40453;SDS011;26160;51.858;4.398;2023-09-12T03:56:07;75.75;;;37.80;;
40453;SDS011;26160;51.858;4.398;2023-09-12T03:58:35;70.85;;;37.33;;
40453;SDS011;26160;51.858;4.398;2023-09-12T04:01:01;69.85;;;36.67;;
40453;SDS011;26160;51.858;4.398;2023-09-12T04:03:27;85.05;;;39.95;;
40453;SDS011;26160;51.858;4.398;2023-09-12T04:05:53;59.22;;;35.08;;
40453;SDS011;26160;51.858;4.398;2023-09-12T04:08:20;72.38;;;35.55;;
40453;SDS011;26160;51.858;4.398;2023-09-12T04:10:46;56.92;;;33.15;;
40453;SDS011;26160;51.858;4.398;2023-09-12T04:13:12;98.78;;;40.30;;
40453;SDS011;26160;51.858;4.398;2023-09-12T04:15:38;74.03;;;38.90;;
40453;SDS011;26160;51.858;4.398;2023-09-12T04:18:04;75.63;;;39.53;;
40453;SDS011;26160;51.858;4.398;2023-09-12T04:20:31;74.43;;;38.13;;
40453;SDS011;26160;51.858;4.398;2023-09-12T04:22:57;79.60;;;41.20;;
40453;SDS011;26160;51.858;4.398;2023-09-12T04:25:25;83.20;;;40.88;;
40453;SDS011;26160;51.858;4.398;2023-09-12T04:27:52;84.43;;;40.90;;
40453;SDS011;26160;51.858;4.398;2023-09-12T04:30:18;81.88;;;41.92;;
40453;SDS011;26160;51.858;4.398;2023-09-12T04:32:44;118.72;;;50.08;;
40453;SDS011;26160;51.858;4.398;2023-09-12T04:35:10;80.97;;;41.30;;
40453;SDS011;26160;51.858;4.398;2023-09-12T04:37:36;82.75;;;43.40;;
40453;SDS011;26160;51.858;4.398;2023-09-12T04:40:03;75.55;;;41.95;;
40453;SDS011;26160;51.858;4.398;2023-09-12T04:42:31;82.18;;;43.17;;
40453;SDS011;26160;51.858;4.398;2023-09-12T04:44:57;85.53;;;46.33;;
40453;SDS011;26160;51.858;4.398;2023-09-12T04:47:24;92.25;;;46.70;;
40453;SDS011;26160;51.858;4.398;2023-09-12T04:49:50;155.07;;;53.42;;
40453;SDS011;26160;51.858;4.398;2023-09-12T04:52:17;120.22;;;51.85;;
40453;SDS011;26160;51.858;4.398;2023-09-12T04:54:43;104.18;;;50.20;;
40453;SDS011;26160;51.858;4.398;2023-09-12T04:57:10;85.95;;;46.25;;
40453;SDS011;26160;51.858;4.398;2023-09-12T04:59:36;88.18;;;47.45;;
40453;SDS011;26160;51.858;4.398;2023-09-12T05:02:02;135.27;;;53.25;;
40453;SDS011;26160;51.858;4.398;2023-09-12T05:04:28;123.32;;;56.05;;
40453;SDS011;26160;51.858;4.398;2023-09-12T05:06:54;100.32;;;48.90;;
40453;SDS011;26160;51.858;4.398;2023-09-12T05:09:21;127.32;;;58.85;;
40453;SDS011;26160;51.858;4.398;2023-09-12T05:11:47;103.30;;;52.10;;
40453;SDS011;26160;51.858;4.398;2023-09-12T05:14:13;110.53;;;51.55;;
40453;SDS011;26160;51.858;4.398;2023-09-12T05:16:42;97.78;;;47.75;;
40453;SDS011;26160;51.858;4.398;2023-09-12T05:19:08;110.28;;;53.70;;
40453;SDS011;26160;51.858;4.398;2023-09-12T05:21:34;92.00;;;50.42;;
40453;SDS011;26160;51.858;4.398;2023-09-12T05:24:01;108.65;;;52.00;;
40453;SDS011;26160;51.858;4.398;2023-09-12T05:26:27;96.47;;;50.22;;
40453;SDS011;26160;51.858;4.398;2023-09-12T05:28:53;90.55;;;48.33;;
40453;SDS011;26160;51.858;4.398;2023-09-12T05:31:19;93.40;;;48.88;;
40453;SDS011;26160;51.858;4.398;2023-09-12T05:33:45;94.70;;;47.42;;
40453;SDS011;26160;51.858;4.398;2023-09-12T05:36:12;86.07;;;46.85;;
40453;SDS011;26160;51.858;4.398;2023-09-12T05:38:38;102.95;;;52.50;;
40453;SDS011;26160;51.858;4.398;2023-09-12T05:41:04;150.63;;;59.38;;
40453;SDS011;26160;51.858;4.398;2023-09-12T05:43:30;128.40;;;57.72;;
40453;SDS011;26160;51.858;4.398;2023-09-12T05:45:56;138.35;;;61.42;;
40453;SDS011;26160;51.858;4.398;2023-09-12T05:48:23;101.18;;;53.38;;
40453;SDS011;26160;51.858;4.398;2023-09-12T05:50:49;115.13;;;54.92;;
40453;SDS011;26160;51.858;4.398;2023-09-12T05:53:16;112.50;;;55.85;;
40453;SDS011;26160;51.858;4.398;2023-09-12T05:55:42;95.15;;;51.47;;
40453;SDS011;26160;51.858;4.398;2023-09-12T05:58:08;103.30;;;54.53;;
40453;SDS011;26160;51.858;4.398;2023-09-12T06:00:34;107.90;;;53.05;;
40453;SDS011;26160;51.858;4.398;2023-09-12T06:03:00;106.70;;;54.20;;
40453;SDS011;26160;51.858;4.398;2023-09-12T06:05:26;96.80;;;52.40;;
40453;SDS011;26160;51.858;4.398;2023-09-12T06:07:53;114.95;;;56.17;;
40453;SDS011;26160;51.858;4.398;2023-09-12T06:10:19;110.68;;;54.25;;
40453;SDS011;26160;51.858;4.398;2023-09-12T06:12:45;105.95;;;52.22;;
40453;SDS011;26160;51.858;4.398;2023-09-12T06:15:11;99.70;;;51.35;;
40453;SDS011;26160;51.858;4.398;2023-09-12T06:17:37;98.57;;;50.00;;
40453;SDS011;26160;51.858;4.398;2023-09-12T06:20:04;84.47;;;47.08;;
40453;SDS011;26160;51.858;4.398;2023-09-12T06:22:33;88.03;;;47.33;;
40453;SDS011;26160;51.858;4.398;2023-09-12T06:24:59;73.70;;;44.25;;
40453;SDS011;26160;51.858;4.398;2023-09-12T06:27:26;91.22;;;46.83;;
40453;SDS011;26160;51.858;4.398;2023-09-12T06:29:52;86.50;;;45.90;;
40453;SDS011;26160;51.858;4.398;2023-09-12T06:32:18;89.25;;;45.45;;
40453;SDS011;26160;51.858;4.398;2023-09-12T06:34:44;77.75;;;43.40;;
40453;SDS011;26160;51.858;4.398;2023-09-12T06:37:11;79.53;;;44.25;;
40453;SDS011;26160;51.858;4.398;2023-09-12T06:39:37;80.75;;;42.22;;
40453;SDS011;26160;51.858;4.398;2023-09-12T06:42:03;75.70;;;40.65;;
40453;SDS011;26160;51.858;4.398;2023-09-12T06:44:30;79.03;;;43.00;;
40453;SDS011;26160;51.858;4.398;2023-09-12T06:46:57;81.10;;;42.97;;
40453;SDS011;26160;51.858;4.398;2023-09-12T06:49:23;81.07;;;42.75;;
40453;SDS011;26160;51.858;4.398;2023-09-12T06:51:50;66.45;;;38.50;;
40453;SDS011;26160;51.858;4.398;2023-09-12T06:54:16;72.35;;;38.47;;
40453;SDS011;26160;51.858;4.398;2023-09-12T06:56:42;60.85;;;35.40;;
40453;SDS011;26160;51.858;4.398;2023-09-12T06:59:08;64.18;;;36.72;;
40453;SDS011;26160;51.858;4.398;2023-09-12T07:01:34;60.28;;;34.35;;
40453;SDS011;26160;51.858;4.398;2023-09-12T07:04:00;66.00;;;35.40;;
40453;SDS011;26160;51.858;4.398;2023-09-12T07:06:27;55.42;;;33.85;;
40453;SDS011;26160;51.858;4.398;2023-09-12T07:08:53;55.40;;;33.63;;
40453;SDS011;26160;51.858;4.398;2023-09-12T07:11:19;69.07;;;38.60;;
40453;SDS011;26160;51.858;4.398;2023-09-12T07:13:45;56.70;;;36.25;;
40453;SDS011;26160;51.858;4.398;2023-09-12T07:16:12;78.63;;;41.13;;
40453;SDS011;26160;51.858;4.398;2023-09-12T07:18:38;60.30;;;37.00;;
40453;SDS011;26160;51.858;4.398;2023-09-12T07:21:04;64.05;;;38.45;;
40453;SDS011;26160;51.858;4.398;2023-09-12T07:23:32;66.38;;;41.28;;
40453;SDS011;26160;51.858;4.398;2023-09-12T07:25:58;69.72;;;42.90;;
40453;SDS011;26160;51.858;4.398;2023-09-12T07:28:25;67.20;;;40.28;;
40453;SDS011;26160;51.858;4.398;2023-09-12T07:30:52;61.50;;;39.45;;
40453;SDS011;26160;51.858;4.398;2023-09-12T07:33:20;61.08;;;39.28;;
40453;SDS011;26160;51.858;4.398;2023-09-12T07:35:47;61.03;;;40.58;;
40453;SDS011;26160;51.858;4.398;2023-09-12T07:38:14;61.60;;;39.92;;
40453;SDS011;26160;51.858;4.398;2023-09-12T07:40:41;64.15;;;40.72;;
40453;SDS011;26160;51.858;4.398;2023-09-12T07:43:08;63.30;;;40.10;;
40453;SDS011;26160;51.858;4.398;2023-09-12T07:45:35;75.85;;;45.42;;
40453;SDS011;26160;51.858;4.398;2023-09-12T07:48:06;71.97;;;44.55;;
40453;SDS011;26160;51.858;4.398;2023-09-12T07:50:34;71.35;;;43.97;;
40453;SDS011;26160;51.858;4.398;2023-09-12T07:53:00;62.63;;;40.88;;
40453;SDS011;26160;51.858;4.398;2023-09-12T07:55:26;63.47;;;41.03;;
40453;SDS011;26160;51.858;4.398;2023-09-12T07:57:56;58.85;;;40.83;;
40453;SDS011;26160;51.858;4.398;2023-09-12T08:00:23;62.17;;;41.03;;
40453;SDS011;26160;51.858;4.398;2023-09-12T08:02:49;56.15;;;37.58;;
40453;SDS011;26160;51.858;4.398;2023-09-12T08:05:16;57.75;;;38.10;;
40453;SDS011;26160;51.858;4.398;2023-09-12T08:07:42;63.35;;;40.35;;
40453;SDS011;26160;51.858;4.398;2023-09-12T08:10:08;60.60;;;38.35;;
40453;SDS011;26160;51.858;4.398;2023-09-12T08:12:35;54.75;;;35.88;;
40453;SDS011;26160;51.858;4.398;2023-09-12T08:15:04;51.00;;;34.95;;
40453;SDS011;26160;51.858;4.398;2023-09-12T08:17:31;52.50;;;35.47;;
40453;SDS011;26160;51.858;4.398;2023-09-12T08:19:59;55.40;;;36.40;;
40453;SDS011;26160;51.858;4.398;2023-09-12T08:22:25;50.78;;;35.55;;
40453;SDS011;26160;51.858;4.398;2023-09-12T08:24:51;54.28;;;36.65;;
40453;SDS011;26160;51.858;4.398;2023-09-12T08:27:17;53.70;;;36.60;;
40453;SDS011;26160;51.858;4.398;2023-09-12T08:29:43;47.67;;;34.35;;
40453;SDS011;26160;51.858;4.398;2023-09-12T08:32:12;54.40;;;34.42;;
40453;SDS011;26160;51.858;4.398;2023-09-12T08:34:38;50.63;;;35.33;;
40453;SDS011;26160;51.858;4.398;2023-09-12T08:37:04;48.20;;;33.08;;
40453;SDS011;26160;51.858;4.398;2023-09-12T08:39:40;53.50;;;34.58;;
40453;SDS011;26160;51.858;4.398;2023-09-12T08:42:11;46.15;;;33.95;;
40453;SDS011;26160;51.858;4.398;2023-09-12T08:44:39;47.00;;;33.38;;
40453;SDS011;26160;51.858;4.398;2023-09-12T08:47:09;49.95;;;34.15;;
40453;SDS011;26160;51.858;4.398;2023-09-12T08:49:36;51.30;;;34.10;;
40453;SDS011;26160;51.858;4.398;2023-09-12T08:52:06;46.38;;;32.95;;
40453;SDS011;26160;51.858;4.398;2023-09-12T08:54:32;51.83;;;35.33;;
40453;SDS011;26160;51.858;4.398;2023-09-12T08:57:02;47.65;;;33.97;;
40453;SDS011;26160;51.858;4.398;2023-09-12T08:59:34;45.35;;;33.08;;
40453;SDS011;26160;51.858;4.398;2023-09-12T09:02:00;40.28;;;30.52;;
40453;SDS011;26160;51.858;4.398;2023-09-12T09:04:31;41.05;;;32.20;;
40453;SDS011;26160;51.858;4.398;2023-09-12T09:07:00;49.33;;;33.58;;
40453;SDS011;26160;51.858;4.398;2023-09-12T09:09:28;50.95;;;33.83;;
40453;SDS011;26160;51.858;4.398;2023-09-12T09:11:55;47.50;;;32.15;;
40453;SDS011;26160;51.858;4.398;2023-09-12T09:14:24;46.38;;;31.33;;
40453;SDS011;26160;51.858;4.398;2023-09-12T09:16:50;42.40;;;29.90;;
40453;SDS011;26160;51.858;4.398;2023-09-12T09:19:17;45.83;;;30.67;;
40453;SDS011;26160;51.858;4.398;2023-09-12T09:21:45;42.13;;;30.80;;
40453;SDS011;26160;51.858;4.398;2023-09-12T09:24:12;45.20;;;32.03;;
40453;SDS011;26160;51.858;4.398;2023-09-12T09:29:09;45.72;;;31.42;;
40453;SDS011;26160;51.858;4.398;2023-09-12T09:31:39;46.53;;;29.55;;
40453;SDS011;26160;51.858;4.398;2023-09-12T09:34:10;42.13;;;30.25;;
40453;SDS011;26160;51.858;4.398;2023-09-12T09:36:40;45.38;;;30.88;;
40453;SDS011;26160;51.858;4.398;2023-09-12T09:39:08;46.63;;;31.33;;
40453;SDS011;26160;51.858;4.398;2023-09-12T09:41:36;42.42;;;28.92;;
40453;SDS011;26160;51.858;4.398;2023-09-12T09:44:04;40.58;;;28.73;;
40453;SDS011;26160;51.858;4.398;2023-09-12T09:46:31;37.58;;;27.88;;
40453;SDS011;26160;51.858;4.398;2023-09-12T09:49:00;38.10;;;27.52;;
40453;SDS011;26160;51.858;4.398;2023-09-12T09:51:26;38.78;;;27.05;;
40453;SDS011;26160;51.858;4.398;2023-09-12T09:53:58;39.50;;;27.15;;
40453;SDS011;26160;51.858;4.398;2023-09-12T09:56:26;40.67;;;27.33;;
40453;SDS011;26160;51.858;4.398;2023-09-12T10:01:23;36.88;;;25.42;;
40453;SDS011;26160;51.858;4.398;2023-09-12T10:03:56;39.65;;;27.75;;
40453;SDS011;26160;51.858;4.398;2023-09-12T10:06:25;36.58;;;25.00;;
40453;SDS011;26160;51.858;4.398;2023-09-12T10:08:53;34.83;;;24.58;;
40453;SDS011;26160;51.858;4.398;2023-09-12T10:11:22;42.15;;;28.75;;
40453;SDS011;26160;51.858;4.398;2023-09-12T10:13:51;42.38;;;29.80;;
40453;SDS011;26160;51.858;4.398;2023-09-12T10:16:29;40.53;;;28.58;;
40453;SDS011;26160;51.858;4.398;2023-09-12T10:18:58;40.85;;;26.52;;
40453;SDS011;26160;51.858;4.398;2023-09-12T10:21:30;42.53;;;28.67;;
40453;SDS011;26160;51.858;4.398;2023-09-12T10:24:04;43.70;;;27.23;;
40453;SDS011;26160;51.858;4.398;2023-09-12T10:26:46;38.53;;;26.60;;
40453;SDS011;26160;51.858;4.398;2023-09-12T10:29:15;37.70;;;26.48;;
40453;SDS011;26160;51.858;4.398;2023-09-12T10:31:42;37.85;;;26.25;;
40453;SDS011;26160;51.858;4.398;2023-09-12T10:34:17;42.58;;;26.85;;
40453;SDS011;26160;51.858;4.398;2023-09-12T10:36:46;40.80;;;25.88;;
40453;SDS011;26160;51.858;4.398;2023-09-12T10:39:14;37.00;;;26.05;;
40453;SDS011;26160;51.858;4.398;2023-09-12T10:41:54;33.67;;;23.92;;
40453;SDS011;26160;51.858;4.398;2023-09-12T10:44:24;39.10;;;26.40;;
40453;SDS011;26160;51.858;4.398;2023-09-12T10:46:51;44.35;;;27.15;;
40453;SDS011;26160;51.858;4.398;2023-09-12T10:49:21;35.60;;;24.98;;
40453;SDS011;26160;51.858;4.398;2023-09-12T10:51:48;39.65;;;25.50;;
40453;SDS011;26160;51.858;4.398;2023-09-12T10:54:23;36.10;;;25.27;;
40453;SDS011;26160;51.858;4.398;2023-09-12T10:59:32;33.13;;;21.67;;
40453;SDS011;26160;51.858;4.398;2023-09-12T11:08:09;41.50;;;26.08;;
40453;SDS011;26160;51.858;4.398;2023-09-12T11:10:37;36.03;;;24.98;;
40453;SDS011;26160;51.858;4.398;2023-09-12T11:13:16;35.63;;;24.67;;
40453;SDS011;26160;51.858;4.398;2023-09-12T11:21:53;30.40;;;20.80;;
40453;SDS011;26160;51.858;4.398;2023-09-12T11:24:21;30.95;;;20.90;;
40453;SDS011;26160;51.858;4.398;2023-09-12T11:27:01;33.97;;;22.08;;
40453;SDS011;26160;51.858;4.398;2023-09-12T11:29:39;35.15;;;23.85;;
40453;SDS011;26160;51.858;4.398;2023-09-12T11:32:24;34.17;;;22.50;;
40453;SDS011;26160;51.858;4.398;2023-09-12T11:34:54;30.52;;;21.58;;
40453;SDS011;26160;51.858;4.398;2023-09-12T11:37:24;32.90;;;22.55;;
40453;SDS011;26160;51.858;4.398;2023-09-12T11:39:52;31.08;;;22.65;;
40453;SDS011;26160;51.858;4.398;2023-09-12T11:42:20;33.17;;;20.75;;
40453;SDS011;26160;51.858;4.398;2023-09-12T11:44:51;35.60;;;22.53;;
40453;SDS011;26160;51.858;4.398;2023-09-12T11:47:17;33.80;;;24.05;;
40453;SDS011;26160;51.858;4.398;2023-09-12T11:49:44;32.67;;;23.25;;
40453;SDS011;26160;51.858;4.398;2023-09-12T11:52:11;31.25;;;21.90;;
40453;SDS011;26160;51.858;4.398;2023-09-12T11:54:42;32.65;;;21.98;;
40453;SDS011;26160;51.858;4.398;2023-09-12T11:57:09;46.22;;;26.58;;
40453;SDS011;26160;51.858;4.398;2023-09-12T11:59:40;33.03;;;22.35;;
40453;SDS011;26160;51.858;4.398;2023-09-12T12:02:15;37.13;;;24.55;;
40453;SDS011;26160;51.858;4.398;2023-09-12T12:04:42;34.03;;;22.50;;
40453;SDS011;26160;51.858;4.398;2023-09-12T12:07:08;35.30;;;23.38;;
40453;SDS011;26160;51.858;4.398;2023-09-12T12:09:36;35.08;;;23.45;;
40453;SDS011;26160;51.858;4.398;2023-09-12T12:12:12;35.53;;;24.20;;
40453;SDS011;26160;51.858;4.398;2023-09-12T12:14:40;34.20;;;23.92;;
40453;SDS011;26160;51.858;4.398;2023-09-12T12:17:08;36.83;;;24.83;;
40453;SDS011;26160;51.858;4.398;2023-09-12T12:19:35;37.50;;;24.58;;
40453;SDS011;26160;51.858;4.398;2023-09-12T12:22:03;33.70;;;22.88;;
40453;SDS011;26160;51.858;4.398;2023-09-12T12:24:39;31.52;;;21.63;;
40453;SDS011;26160;51.858;4.398;2023-09-12T12:27:15;31.38;;;22.30;;
40453;SDS011;26160;51.858;4.398;2023-09-12T12:29:42;34.55;;;23.85;;
40453;SDS011;26160;51.858;4.398;2023-09-12T12:32:09;34.65;;;25.27;;
40453;SDS011;26160;51.858;4.398;2023-09-12T12:34:36;36.08;;;23.33;;
40453;SDS011;26160;51.858;4.398;2023-09-12T12:37:03;38.72;;;26.13;;
40453;SDS011;26160;51.858;4.398;2023-09-12T12:39:29;37.30;;;23.20;;
40453;SDS011;26160;51.858;4.398;2023-09-12T12:41:56;27.17;;;19.75;;
40453;SDS011;26160;51.858;4.398;2023-09-12T12:44:32;40.50;;;25.30;;
40453;SDS011;26160;51.858;4.398;2023-09-12T12:47:03;32.40;;;22.70;;
40453;SDS011;26160;51.858;4.398;2023-09-12T12:49:35;26.50;;;18.13;;
40453;SDS011;26160;51.858;4.398;2023-09-12T12:52:04;28.25;;;21.23;;
40453;SDS011;26160;51.858;4.398;2023-09-12T12:54:34;29.48;;;18.98;;
40453;SDS011;26160;51.858;4.398;2023-09-12T12:59:31;31.92;;;21.02;;
40453;SDS011;26160;51.858;4.398;2023-09-12T13:02:10;27.08;;;18.35;;
40453;SDS011;26160;51.858;4.398;2023-09-12T13:04:37;32.13;;;20.65;;
40453;SDS011;26160;51.858;4.398;2023-09-12T13:07:03;33.20;;;21.48;;
40453;SDS011;26160;51.858;4.398;2023-09-12T13:09:31;31.63;;;22.17;;
40453;SDS011;26160;51.858;4.398;2023-09-12T13:11:58;31.83;;;21.40;;
40453;SDS011;26160;51.858;4.398;2023-09-12T13:14:24;34.22;;;21.08;;
40453;SDS011;26160;51.858;4.398;2023-09-12T13:16:59;34.80;;;21.75;;
40453;SDS011;26160;51.858;4.398;2023-09-12T13:19:26;36.35;;;23.42;;
40453;SDS011;26160;51.858;4.398;2023-09-12T13:21:52;34.33;;;22.60;;
40453;SDS011;26160;51.858;4.398;2023-09-12T13:24:18;28.67;;;20.80;;
40453;SDS011;26160;51.858;4.398;2023-09-12T13:26:44;28.20;;;18.83;;
40453;SDS011;26160;51.858;4.398;2023-09-12T13:29:16;38.53;;;23.65;;
40453;SDS011;26160;51.858;4.398;2023-09-12T13:31:42;26.20;;;17.90;;
40453;SDS011;26160;51.858;4.398;2023-09-12T13:34:10;30.60;;;20.02;;
40453;SDS011;26160;51.858;4.398;2023-09-12T13:36:37;27.38;;;18.45;;
40453;SDS011;26160;51.858;4.398;2023-09-12T13:39:03;26.48;;;17.60;;
40453;SDS011;26160;51.858;4.398;2023-09-12T13:41:29;27.75;;;18.33;;
40453;SDS011;26160;51.858;4.398;2023-09-12T13:43:55;28.40;;;16.60;;
40453;SDS011;26160;51.858;4.398;2023-09-12T13:46:24;23.30;;;15.50;;
40453;SDS011;26160;51.858;4.398;2023-09-12T13:49:10;30.10;;;19.23;;
40453;SDS011;26160;51.858;4.398;2023-09-12T13:51:36;26.27;;;18.30;;
40453;SDS011;26160;51.858;4.398;2023-09-12T13:54:02;25.10;;;16.38;;
40453;SDS011;26160;51.858;4.398;2023-09-12T13:56:31;25.95;;;17.63;;
40453;SDS011;26160;51.858;4.398;2023-09-12T13:59:05;29.05;;;17.25;;
40453;SDS011;26160;51.858;4.398;2023-09-12T14:01:32;25.27;;;17.67;;
40453;SDS011;26160;51.858;4.398;2023-09-12T14:04:02;29.77;;;17.45;;
40453;SDS011;26160;51.858;4.398;2023-09-12T14:09:13;21.67;;;13.75;;
40453;SDS011;26160;51.858;4.398;2023-09-12T14:11:44;26.23;;;16.67;;
40453;SDS011;26160;51.858;4.398;2023-09-12T14:14:13;21.83;;;14.43;;
40453;SDS011;26160;51.858;4.398;2023-09-12T14:16:39;24.02;;;14.43;;
40453;SDS011;26160;51.858;4.398;2023-09-12T14:19:07;20.55;;;14.10;;
40453;SDS011;26160;51.858;4.398;2023-09-12T14:21:33;21.77;;;14.68;;
40453;SDS011;26160;51.858;4.398;2023-09-12T14:24:00;24.38;;;15.32;;
40453;SDS011;26160;51.858;4.398;2023-09-12T14:26:32;17.13;;;11.82;;
40453;SDS011;26160;51.858;4.398;2023-09-12T14:29:09;22.70;;;15.23;;
40453;SDS011;26160;51.858;4.398;2023-09-12T14:31:36;20.27;;;12.85;;
40453;SDS011;26160;51.858;4.398;2023-09-12T14:34:03;23.25;;;15.77;;
40453;SDS011;26160;51.858;4.398;2023-09-12T14:36:31;16.08;;;11.80;;
40453;SDS011;26160;51.858;4.398;2023-09-12T14:38:58;19.83;;;12.35;;
40453;SDS011;26160;51.858;4.398;2023-09-12T14:41:24;18.42;;;12.93;;
40453;SDS011;26160;51.858;4.398;2023-09-12T14:43:51;22.08;;;13.77;;
40453;SDS011;26160;51.858;4.398;2023-09-12T14:46:18;18.23;;;12.02;;
40453;SDS011;26160;51.858;4.398;2023-09-12T14:48:46;22.77;;;13.90;;
40453;SDS011;26160;51.858;4.398;2023-09-12T14:51:12;20.15;;;12.70;;
40453;SDS011;26160;51.858;4.398;2023-09-12T14:53:38;20.58;;;12.60;;